sensor_id;sensor_type;location;lat;lon;timestamp;P1;durP1;ratioP1;P2;durP2;ratioP2
18280;SDS011;9266;51.132;17.062;2023-12-28T00:02:06;34.27;;;17.93;;
18280;SDS011;9266;51.132;17.062;2023-12-28T00:04:35;30.03;;;17.37;;
18280;SDS011;9266;51.132;17.062;2023-12-28T00:07:02;31.83;;;17.93;;
18280;SDS011;9266;51.132;17.062;2023-12-28T00:09:29;30.23;;;18.00;;
18280;SDS011;9266;51.132;17.062;2023-12-28T00:11:56;32.50;;;18.90;;
18280;SDS011;9266;51.132;17.062;2023-12-28T00:14:24;30.77;;;18.37;;
18280;SDS011;9266;51.132;17.062;2023-12-28T00:16:51;31.70;;;18.70;;
18280;SDS011;9266;51.132;17.062;2023-12-28T00:19:18;31.80;;;18.70;;
18280;SDS011;9266;51.132;17.062;2023-12-28T00:21:47;29.70;;;17.90;;
18280;SDS011;9266;51.132;17.062;2023-12-28T00:24:14;36.17;;;19.80;;
18280;SDS011;9266;51.132;17.062;2023-12-28T00:26:42;32.20;;;19.00;;
18280;SDS011;9266;51.132;17.062;2023-12-28T00:29:09;36.40;;;19.37;;
18280;SDS011;9266;51.132;17.062;2023-12-28T00:31:36;36.00;;;20.33;;
18280;SDS011;9266;51.132;17.062;2023-12-28T00:34:03;30.37;;;19.00;;
18280;SDS011;9266;51.132;17.062;2023-12-28T00:36:29;34.47;;;21.07;;
18280;SDS011;9266;51.132;17.062;2023-12-28T00:38:58;38.17;;;22.20;;
18280;SDS011;9266;51.132;17.062;2023-12-28T00:41:25;34.67;;;20.23;;
18280;SDS011;9266;51.132;17.062;2023-12-28T00:43:52;40.87;;;20.50;;
18280;SDS011;9266;51.132;17.062;2023-12-28T00:46:19;38.67;;;21.60;;
18280;SDS011;9266;51.132;17.062;2023-12-28T00:48:46;34.00;;;20.33;;
18280;SDS011;9266;51.132;17.062;2023-12-28T00:51:13;34.73;;;20.27;;
18280;SDS011;9266;51.132;17.062;2023-12-28T00:53:40;40.23;;;20.97;;
18280;SDS011;9266;51.132;17.062;2023-12-28T00:56:08;35.00;;;20.83;;
18280;SDS011;9266;51.132;17.062;2023-12-28T00:58:38;36.60;;;21.73;;
18280;SDS011;9266;51.132;17.062;2023-12-28T01:01:05;34.23;;;21.33;;
18280;SDS011;9266;51.132;17.062;2023-12-28T01:03:32;37.53;;;20.50;;
18280;SDS011;9266;51.132;17.062;2023-12-28T01:05:59;37.20;;;21.37;;
18280;SDS011;9266;51.132;17.062;2023-12-28T01:08:26;36.30;;;20.93;;
18280;SDS011;9266;51.132;17.062;2023-12-28T01:10:53;36.97;;;20.90;;
18280;SDS011;9266;51.132;17.062;2023-12-28T01:13:21;36.17;;;20.80;;
18280;SDS011;9266;51.132;17.062;2023-12-28T01:15:48;36.50;;;21.20;;
18280;SDS011;9266;51.132;17.062;2023-12-28T01:18:15;36.30;;;21.47;;
18280;SDS011;9266;51.132;17.062;2023-12-28T01:20:42;33.33;;;20.30;;
18280;SDS011;9266;51.132;17.062;2023-12-28T01:23:09;35.43;;;20.93;;
18280;SDS011;9266;51.132;17.062;2023-12-28T01:25:35;37.50;;;21.07;;
18280;SDS011;9266;51.132;17.062;2023-12-28T01:28:03;33.53;;;20.90;;
18280;SDS011;9266;51.132;17.062;2023-12-28T01:30:31;36.10;;;21.43;;
18280;SDS011;9266;51.132;17.062;2023-12-28T01:32:59;34.27;;;21.57;;
18280;SDS011;9266;51.132;17.062;2023-12-28T01:35:26;36.43;;;21.57;;
18280;SDS011;9266;51.132;17.062;2023-12-28T01:37:53;36.73;;;21.80;;
18280;SDS011;9266;51.132;17.062;2023-12-28T01:40:19;34.53;;;21.30;;
18280;SDS011;9266;51.132;17.062;2023-12-28T01:42:46;41.07;;;22.83;;
18280;SDS011;9266;51.132;17.062;2023-12-28T01:45:13;32.73;;;21.57;;
18280;SDS011;9266;51.132;17.062;2023-12-28T01:47:42;38.03;;;21.43;;
18280;SDS011;9266;51.132;17.062;2023-12-28T01:50:09;39.00;;;22.27;;
18280;SDS011;9266;51.132;17.062;2023-12-28T01:52:36;38.43;;;21.87;;
18280;SDS011;9266;51.132;17.062;2023-12-28T01:55:04;36.90;;;22.63;;
18280;SDS011;9266;51.132;17.062;2023-12-28T01:57:31;34.77;;;22.90;;
18280;SDS011;9266;51.132;17.062;2023-12-28T01:59:58;43.40;;;23.60;;
18280;SDS011;9266;51.132;17.062;2023-12-28T02:02:26;43.67;;;23.77;;
18280;SDS011;9266;51.132;17.062;2023-12-28T02:04:55;41.10;;;23.50;;
18280;SDS011;9266;51.132;17.062;2023-12-28T02:07:22;37.67;;;22.73;;
18280;SDS011;9266;51.132;17.062;2023-12-28T02:09:50;41.30;;;23.63;;
18280;SDS011;9266;51.132;17.062;2023-12-28T02:12:17;44.17;;;25.73;;
18280;SDS011;9266;51.132;17.062;2023-12-28T02:14:44;45.80;;;26.63;;
18280;SDS011;9266;51.132;17.062;2023-12-28T02:17:13;42.80;;;26.67;;
18280;SDS011;9266;51.132;17.062;2023-12-28T02:19:47;41.70;;;25.10;;
18280;SDS011;9266;51.132;17.062;2023-12-28T02:22:18;42.30;;;24.60;;
18280;SDS011;9266;51.132;17.062;2023-12-28T02:25:03;41.93;;;24.90;;
18280;SDS011;9266;51.132;17.062;2023-12-28T02:27:32;45.17;;;25.87;;
18280;SDS011;9266;51.132;17.062;2023-12-28T02:29:59;43.73;;;26.50;;
18280;SDS011;9266;51.132;17.062;2023-12-28T02:32:28;38.47;;;25.60;;
18280;SDS011;9266;51.132;17.062;2023-12-28T02:35:04;38.90;;;25.30;;
18280;SDS011;9266;51.132;17.062;2023-12-28T02:37:39;48.03;;;25.47;;
18280;SDS011;9266;51.132;17.062;2023-12-28T02:40:09;42.10;;;25.60;;
18280;SDS011;9266;51.132;17.062;2023-12-28T02:42:37;43.63;;;25.37;;
18280;SDS011;9266;51.132;17.062;2023-12-28T02:45:04;39.10;;;24.97;;
18280;SDS011;9266;51.132;17.062;2023-12-28T02:47:32;41.53;;;24.50;;
18280;SDS011;9266;51.132;17.062;2023-12-28T02:49:59;45.57;;;26.87;;
18280;SDS011;9266;51.132;17.062;2023-12-28T02:52:26;40.60;;;24.90;;
18280;SDS011;9266;51.132;17.062;2023-12-28T02:54:53;37.93;;;23.00;;
18280;SDS011;9266;51.132;17.062;2023-12-28T02:57:21;38.27;;;22.47;;
18280;SDS011;9266;51.132;17.062;2023-12-28T02:59:48;33.07;;;21.43;;
18280;SDS011;9266;51.132;17.062;2023-12-28T03:02:15;33.63;;;21.20;;
18280;SDS011;9266;51.132;17.062;2023-12-28T03:04:42;32.00;;;19.93;;
18280;SDS011;9266;51.132;17.062;2023-12-28T03:07:09;29.97;;;20.30;;
18280;SDS011;9266;51.132;17.062;2023-12-28T03:09:36;30.63;;;19.97;;
18280;SDS011;9266;51.132;17.062;2023-12-28T03:12:04;33.97;;;21.17;;
18280;SDS011;9266;51.132;17.062;2023-12-28T03:14:33;33.23;;;19.77;;
18280;SDS011;9266;51.132;17.062;2023-12-28T03:17:00;29.70;;;18.90;;
18280;SDS011;9266;51.132;17.062;2023-12-28T03:19:27;30.97;;;18.83;;
18280;SDS011;9266;51.132;17.062;2023-12-28T03:21:54;32.10;;;19.80;;
18280;SDS011;9266;51.132;17.062;2023-12-28T03:24:20;26.67;;;18.63;;
18280;SDS011;9266;51.132;17.062;2023-12-28T03:26:47;30.60;;;19.27;;
18280;SDS011;9266;51.132;17.062;2023-12-28T03:29:14;34.60;;;19.53;;
18280;SDS011;9266;51.132;17.062;2023-12-28T03:31:42;28.87;;;18.67;;
18280;SDS011;9266;51.132;17.062;2023-12-28T03:34:09;28.97;;;18.90;;
18280;SDS011;9266;51.132;17.062;2023-12-28T03:36:36;33.20;;;18.77;;
18280;SDS011;9266;51.132;17.062;2023-12-28T03:39:03;32.70;;;20.23;;
18280;SDS011;9266;51.132;17.062;2023-12-28T03:41:31;32.10;;;20.10;;
18280;SDS011;9266;51.132;17.062;2023-12-28T03:43:58;31.53;;;19.63;;
18280;SDS011;9266;51.132;17.062;2023-12-28T03:46:25;31.10;;;19.03;;
18280;SDS011;9266;51.132;17.062;2023-12-28T03:48:54;30.07;;;18.77;;
18280;SDS011;9266;51.132;17.062;2023-12-28T03:51:20;27.07;;;18.27;;
18280;SDS011;9266;51.132;17.062;2023-12-28T03:53:48;25.73;;;18.00;;
18280;SDS011;9266;51.132;17.062;2023-12-28T03:56:19;27.50;;;16.03;;
18280;SDS011;9266;51.132;17.062;2023-12-28T03:58:47;23.87;;;15.80;;
18280;SDS011;9266;51.132;17.062;2023-12-28T04:01:15;23.37;;;15.00;;
18280;SDS011;9266;51.132;17.062;2023-12-28T04:03:42;22.57;;;15.27;;
18280;SDS011;9266;51.132;17.062;2023-12-28T04:06:10;26.23;;;16.63;;
18280;SDS011;9266;51.132;17.062;2023-12-28T04:08:38;24.57;;;17.27;;
18280;SDS011;9266;51.132;17.062;2023-12-28T04:11:05;27.20;;;17.20;;
18280;SDS011;9266;51.132;17.062;2023-12-28T04:13:32;23.87;;;15.97;;
18280;SDS011;9266;51.132;17.062;2023-12-28T04:15:59;25.10;;;14.80;;
18280;SDS011;9266;51.132;17.062;2023-12-28T04:18:26;23.33;;;15.80;;
18280;SDS011;9266;51.132;17.062;2023-12-28T04:20:53;21.13;;;14.07;;
18280;SDS011;9266;51.132;17.062;2023-12-28T04:23:21;22.30;;;15.30;;
18280;SDS011;9266;51.132;17.062;2023-12-28T04:25:48;24.23;;;15.43;;
18280;SDS011;9266;51.132;17.062;2023-12-28T04:28:15;28.43;;;17.20;;
18280;SDS011;9266;51.132;17.062;2023-12-28T04:30:42;22.53;;;15.03;;
18280;SDS011;9266;51.132;17.062;2023-12-28T04:33:09;25.37;;;16.33;;
18280;SDS011;9266;51.132;17.062;2023-12-28T04:35:35;19.30;;;13.63;;
18280;SDS011;9266;51.132;17.062;2023-12-28T04:38:02;20.10;;;13.73;;
18280;SDS011;9266;51.132;17.062;2023-12-28T04:40:31;18.57;;;13.10;;
18280;SDS011;9266;51.132;17.062;2023-12-28T04:42:58;17.43;;;12.13;;
18280;SDS011;9266;51.132;17.062;2023-12-28T04:45:25;20.47;;;13.03;;
18280;SDS011;9266;51.132;17.062;2023-12-28T04:47:52;18.60;;;12.40;;
18280;SDS011;9266;51.132;17.062;2023-12-28T04:50:19;19.50;;;12.80;;
18280;SDS011;9266;51.132;17.062;2023-12-28T04:52:46;17.53;;;12.67;;
18280;SDS011;9266;51.132;17.062;2023-12-28T04:55:13;22.27;;;14.10;;
18280;SDS011;9266;51.132;17.062;2023-12-28T04:57:42;20.67;;;13.07;;
18280;SDS011;9266;51.132;17.062;2023-12-28T05:00:09;18.83;;;12.07;;
18280;SDS011;9266;51.132;17.062;2023-12-28T05:02:36;17.60;;;12.63;;
18280;SDS011;9266;51.132;17.062;2023-12-28T05:05:03;19.03;;;11.87;;
18280;SDS011;9266;51.132;17.062;2023-12-28T05:07:30;17.47;;;11.43;;
18280;SDS011;9266;51.132;17.062;2023-12-28T05:09:57;16.93;;;11.33;;
18280;SDS011;9266;51.132;17.062;2023-12-28T05:12:24;16.27;;;11.00;;
18280;SDS011;9266;51.132;17.062;2023-12-28T05:14:52;17.00;;;11.00;;
18280;SDS011;9266;51.132;17.062;2023-12-28T05:17:19;14.07;;;9.40;;
18280;SDS011;9266;51.132;17.062;2023-12-28T05:19:46;14.67;;;9.13;;
18280;SDS011;9266;51.132;17.062;2023-12-28T05:22:13;12.97;;;8.50;;
18280;SDS011;9266;51.132;17.062;2023-12-28T05:24:40;12.10;;;8.57;;
18280;SDS011;9266;51.132;17.062;2023-12-28T05:27:07;16.47;;;10.50;;
18280;SDS011;9266;51.132;17.062;2023-12-28T05:29:34;10.60;;;9.00;;
18280;SDS011;9266;51.132;17.062;2023-12-28T05:32:02;12.53;;;8.60;;
18280;SDS011;9266;51.132;17.062;2023-12-28T05:34:29;11.30;;;7.87;;
18280;SDS011;9266;51.132;17.062;2023-12-28T05:36:56;7.97;;;6.10;;
18280;SDS011;9266;51.132;17.062;2023-12-28T05:39:23;7.50;;;5.80;;
18280;SDS011;9266;51.132;17.062;2023-12-28T05:41:50;7.87;;;6.20;;
18280;SDS011;9266;51.132;17.062;2023-12-28T05:44:17;6.63;;;5.20;;
18280;SDS011;9266;51.132;17.062;2023-12-28T05:46:44;7.23;;;5.27;;
18280;SDS011;9266;51.132;17.062;2023-12-28T05:49:12;8.80;;;5.00;;
18280;SDS011;9266;51.132;17.062;2023-12-28T05:51:39;5.67;;;4.10;;
18280;SDS011;9266;51.132;17.062;2023-12-28T05:54:07;5.13;;;4.13;;
18280;SDS011;9266;51.132;17.062;2023-12-28T05:56:34;4.77;;;4.03;;
18280;SDS011;9266;51.132;17.062;2023-12-28T05:59:01;5.73;;;3.90;;
18280;SDS011;9266;51.132;17.062;2023-12-28T06:01:28;4.43;;;3.73;;
18280;SDS011;9266;51.132;17.062;2023-12-28T06:03:55;4.73;;;4.13;;
18280;SDS011;9266;51.132;17.062;2023-12-28T06:06:23;6.47;;;4.13;;
18280;SDS011;9266;51.132;17.062;2023-12-28T06:08:51;6.67;;;4.40;;
18280;SDS011;9266;51.132;17.062;2023-12-28T06:11:18;5.83;;;4.10;;
18280;SDS011;9266;51.132;17.062;2023-12-28T06:13:45;4.63;;;3.50;;
18280;SDS011;9266;51.132;17.062;2023-12-28T06:16:12;4.90;;;3.77;;
18280;SDS011;9266;51.132;17.062;2023-12-28T06:18:39;6.40;;;4.70;;
18280;SDS011;9266;51.132;17.062;2023-12-28T06:21:07;4.97;;;4.33;;
18280;SDS011;9266;51.132;17.062;2023-12-28T06:23:36;7.97;;;4.43;;
18280;SDS011;9266;51.132;17.062;2023-12-28T06:26:06;7.50;;;4.07;;
18280;SDS011;9266;51.132;17.062;2023-12-28T06:28:33;6.60;;;4.50;;
18280;SDS011;9266;51.132;17.062;2023-12-28T06:31:00;9.33;;;4.60;;
18280;SDS011;9266;51.132;17.062;2023-12-28T06:33:28;7.07;;;5.73;;
18280;SDS011;9266;51.132;17.062;2023-12-28T06:35:55;6.07;;;4.80;;
18280;SDS011;9266;51.132;17.062;2023-12-28T06:38:23;5.13;;;3.43;;
18280;SDS011;9266;51.132;17.062;2023-12-28T06:40:52;6.07;;;4.00;;
18280;SDS011;9266;51.132;17.062;2023-12-28T06:43:18;7.33;;;3.50;;
18280;SDS011;9266;51.132;17.062;2023-12-28T06:45:46;5.80;;;3.83;;
18280;SDS011;9266;51.132;17.062;2023-12-28T06:48:13;5.50;;;3.90;;
18280;SDS011;9266;51.132;17.062;2023-12-28T06:50:39;5.77;;;3.23;;
18280;SDS011;9266;51.132;17.062;2023-12-28T06:53:06;5.63;;;3.60;;
18280;SDS011;9266;51.132;17.062;2023-12-28T06:55:33;6.27;;;3.70;;
18280;SDS011;9266;51.132;17.062;2023-12-28T06:58:02;4.97;;;3.27;;
18280;SDS011;9266;51.132;17.062;2023-12-28T07:00:31;4.43;;;3.40;;
18280;SDS011;9266;51.132;17.062;2023-12-28T07:02:58;5.50;;;3.93;;
18280;SDS011;9266;51.132;17.062;2023-12-28T07:05:24;5.10;;;3.60;;
18280;SDS011;9266;51.132;17.062;2023-12-28T07:07:51;4.70;;;3.30;;
18280;SDS011;9266;51.132;17.062;2023-12-28T07:10:18;4.83;;;3.23;;
18280;SDS011;9266;51.132;17.062;2023-12-28T07:12:45;6.50;;;3.60;;
18280;SDS011;9266;51.132;17.062;2023-12-28T07:15:14;4.27;;;3.43;;
18280;SDS011;9266;51.132;17.062;2023-12-28T07:17:41;6.20;;;3.73;;
18280;SDS011;9266;51.132;17.062;2023-12-28T07:20:08;5.57;;;3.63;;
18280;SDS011;9266;51.132;17.062;2023-12-28T07:22:36;5.07;;;3.17;;
18280;SDS011;9266;51.132;17.062;2023-12-28T07:25:03;5.83;;;3.60;;
18280;SDS011;9266;51.132;17.062;2023-12-28T07:27:31;4.90;;;3.00;;
18280;SDS011;9266;51.132;17.062;2023-12-28T07:29:58;5.43;;;3.07;;
18280;SDS011;9266;51.132;17.062;2023-12-28T07:32:27;7.33;;;3.70;;
18280;SDS011;9266;51.132;17.062;2023-12-28T07:34:55;4.87;;;3.43;;
18280;SDS011;9266;51.132;17.062;2023-12-28T07:37:24;6.23;;;5.10;;
18280;SDS011;9266;51.132;17.062;2023-12-28T07:39:51;5.67;;;3.90;;
18280;SDS011;9266;51.132;17.062;2023-12-28T07:42:18;5.33;;;3.50;;
18280;SDS011;9266;51.132;17.062;2023-12-28T07:44:45;5.73;;;4.10;;
18280;SDS011;9266;51.132;17.062;2023-12-28T07:47:12;6.60;;;4.20;;
18280;SDS011;9266;51.132;17.062;2023-12-28T07:49:40;6.13;;;4.10;;
18280;SDS011;9266;51.132;17.062;2023-12-28T07:52:07;4.90;;;3.57;;
18280;SDS011;9266;51.132;17.062;2023-12-28T07:54:34;8.33;;;3.73;;
18280;SDS011;9266;51.132;17.062;2023-12-28T07:57:01;8.07;;;3.73;;
18280;SDS011;9266;51.132;17.062;2023-12-28T07:59:28;7.50;;;3.60;;
18280;SDS011;9266;51.132;17.062;2023-12-28T08:01:55;3.33;;;3.03;;
18280;SDS011;9266;51.132;17.062;2023-12-28T08:04:23;5.17;;;3.87;;
18280;SDS011;9266;51.132;17.062;2023-12-28T08:06:51;5.00;;;3.70;;
18280;SDS011;9266;51.132;17.062;2023-12-28T08:09:18;6.07;;;3.97;;
18280;SDS011;9266;51.132;17.062;2023-12-28T08:11:45;5.10;;;3.87;;
18280;SDS011;9266;51.132;17.062;2023-12-28T08:14:12;5.90;;;3.67;;
18280;SDS011;9266;51.132;17.062;2023-12-28T08:16:39;5.27;;;3.67;;
18280;SDS011;9266;51.132;17.062;2023-12-28T08:19:06;5.23;;;3.73;;
18280;SDS011;9266;51.132;17.062;2023-12-28T08:21:33;5.93;;;3.67;;
18280;SDS011;9266;51.132;17.062;2023-12-28T08:24:01;4.80;;;3.50;;
18280;SDS011;9266;51.132;17.062;2023-12-28T08:26:28;6.27;;;3.87;;
18280;SDS011;9266;51.132;17.062;2023-12-28T08:28:57;6.50;;;4.10;;
18280;SDS011;9266;51.132;17.062;2023-12-28T08:31:24;5.17;;;3.67;;
18280;SDS011;9266;51.132;17.062;2023-12-28T08:33:51;3.97;;;3.53;;
18280;SDS011;9266;51.132;17.062;2023-12-28T08:36:18;7.57;;;3.87;;
18280;SDS011;9266;51.132;17.062;2023-12-28T08:38:45;3.60;;;3.17;;
18280;SDS011;9266;51.132;17.062;2023-12-28T08:41:20;8.63;;;3.87;;
18280;SDS011;9266;51.132;17.062;2023-12-28T08:43:49;6.67;;;3.30;;
18280;SDS011;9266;51.132;17.062;2023-12-28T08:46:17;5.73;;;3.50;;
18280;SDS011;9266;51.132;17.062;2023-12-28T08:48:44;6.37;;;3.83;;
18280;SDS011;9266;51.132;17.062;2023-12-28T08:51:11;5.20;;;3.70;;
18280;SDS011;9266;51.132;17.062;2023-12-28T08:53:39;6.50;;;3.80;;
18280;SDS011;9266;51.132;17.062;2023-12-28T08:56:12;4.87;;;3.40;;
18280;SDS011;9266;51.132;17.062;2023-12-28T08:58:41;7.07;;;4.17;;
18280;SDS011;9266;51.132;17.062;2023-12-28T09:01:08;5.63;;;4.00;;
18280;SDS011;9266;51.132;17.062;2023-12-28T09:03:41;4.97;;;3.83;;
18280;SDS011;9266;51.132;17.062;2023-12-28T09:06:08;6.17;;;4.00;;
18280;SDS011;9266;51.132;17.062;2023-12-28T09:08:35;4.73;;;4.20;;
18280;SDS011;9266;51.132;17.062;2023-12-28T09:11:02;5.27;;;4.03;;
18280;SDS011;9266;51.132;17.062;2023-12-28T09:13:29;5.37;;;3.90;;
18280;SDS011;9266;51.132;17.062;2023-12-28T09:15:57;4.80;;;4.00;;
18280;SDS011;9266;51.132;17.062;2023-12-28T09:18:24;6.03;;;4.53;;
18280;SDS011;9266;51.132;17.062;2023-12-28T09:20:51;7.27;;;4.20;;
18280;SDS011;9266;51.132;17.062;2023-12-28T09:23:18;6.83;;;4.10;;
18280;SDS011;9266;51.132;17.062;2023-12-28T09:25:45;8.77;;;4.87;;
18280;SDS011;9266;51.132;17.062;2023-12-28T09:28:12;6.53;;;4.30;;
18280;SDS011;9266;51.132;17.062;2023-12-28T09:30:39;8.10;;;4.50;;
18280;SDS011;9266;51.132;17.062;2023-12-28T09:33:08;5.77;;;4.30;;
18280;SDS011;9266;51.132;17.062;2023-12-28T09:35:34;6.50;;;4.43;;
18280;SDS011;9266;51.132;17.062;2023-12-28T09:38:02;8.00;;;4.10;;
18280;SDS011;9266;51.132;17.062;2023-12-28T09:40:29;6.73;;;4.37;;
18280;SDS011;9266;51.132;17.062;2023-12-28T09:42:57;6.27;;;4.20;;
18280;SDS011;9266;51.132;17.062;2023-12-28T09:45:32;5.60;;;4.57;;
18280;SDS011;9266;51.132;17.062;2023-12-28T09:48:00;7.77;;;5.00;;
18280;SDS011;9266;51.132;17.062;2023-12-28T09:50:31;7.87;;;5.40;;
18280;SDS011;9266;51.132;17.062;2023-12-28T09:52:58;6.50;;;4.57;;
18280;SDS011;9266;51.132;17.062;2023-12-28T09:55:25;7.73;;;5.40;;
18280;SDS011;9266;51.132;17.062;2023-12-28T09:57:52;5.53;;;4.30;;
18280;SDS011;9266;51.132;17.062;2023-12-28T10:00:19;6.00;;;4.53;;
18280;SDS011;9266;51.132;17.062;2023-12-28T10:02:46;6.77;;;4.47;;
18280;SDS011;9266;51.132;17.062;2023-12-28T10:05:13;6.37;;;5.23;;
18280;SDS011;9266;51.132;17.062;2023-12-28T10:07:43;8.13;;;5.17;;
18280;SDS011;9266;51.132;17.062;2023-12-28T10:10:10;7.63;;;4.63;;
18280;SDS011;9266;51.132;17.062;2023-12-28T10:12:37;9.47;;;5.00;;
18280;SDS011;9266;51.132;17.062;2023-12-28T10:15:05;6.40;;;5.03;;
18280;SDS011;9266;51.132;17.062;2023-12-28T10:17:32;6.60;;;4.97;;
18280;SDS011;9266;51.132;17.062;2023-12-28T10:20:00;7.13;;;4.63;;
18280;SDS011;9266;51.132;17.062;2023-12-28T10:22:31;10.63;;;5.13;;
18280;SDS011;9266;51.132;17.062;2023-12-28T10:25:01;6.40;;;4.87;;
18280;SDS011;9266;51.132;17.062;2023-12-28T10:27:29;7.57;;;5.23;;
18280;SDS011;9266;51.132;17.062;2023-12-28T10:29:56;6.70;;;5.20;;
18280;SDS011;9266;51.132;17.062;2023-12-28T10:32:23;8.07;;;4.77;;
18280;SDS011;9266;51.132;17.062;2023-12-28T10:34:51;8.37;;;5.13;;
18280;SDS011;9266;51.132;17.062;2023-12-28T10:37:19;6.50;;;4.57;;
18280;SDS011;9266;51.132;17.062;2023-12-28T10:39:48;9.87;;;4.97;;
18280;SDS011;9266;51.132;17.062;2023-12-28T10:42:21;5.77;;;4.77;;
18280;SDS011;9266;51.132;17.062;2023-12-28T10:44:55;10.07;;;5.33;;
18280;SDS011;9266;51.132;17.062;2023-12-28T10:47:29;9.03;;;4.80;;
18280;SDS011;9266;51.132;17.062;2023-12-28T10:49:58;8.17;;;5.33;;
18280;SDS011;9266;51.132;17.062;2023-12-28T10:52:30;6.37;;;4.47;;
18280;SDS011;9266;51.132;17.062;2023-12-28T10:55:01;7.67;;;4.50;;
18280;SDS011;9266;51.132;17.062;2023-12-28T10:57:49;7.03;;;5.10;;
18280;SDS011;9266;51.132;17.062;2023-12-28T11:00:25;8.03;;;4.97;;
18280;SDS011;9266;51.132;17.062;2023-12-28T11:03:01;6.43;;;4.90;;
18280;SDS011;9266;51.132;17.062;2023-12-28T11:05:30;10.00;;;4.93;;
18280;SDS011;9266;51.132;17.062;2023-12-28T11:07:57;6.67;;;5.07;;
18280;SDS011;9266;51.132;17.062;2023-12-28T11:10:25;6.97;;;4.93;;
18280;SDS011;9266;51.132;17.062;2023-12-28T11:12:56;7.40;;;5.60;;
18280;SDS011;9266;51.132;17.062;2023-12-28T11:15:23;6.83;;;4.73;;
18280;SDS011;9266;51.132;17.062;2023-12-28T11:17:51;9.30;;;5.40;;
18280;SDS011;9266;51.132;17.062;2023-12-28T11:20:18;10.30;;;6.17;;
18280;SDS011;9266;51.132;17.062;2023-12-28T11:22:46;10.47;;;8.43;;
18280;SDS011;9266;51.132;17.062;2023-12-28T11:25:15;10.87;;;5.93;;
18280;SDS011;9266;51.132;17.062;2023-12-28T11:27:43;6.57;;;5.23;;
18280;SDS011;9266;51.132;17.062;2023-12-28T11:30:13;8.73;;;5.50;;
18280;SDS011;9266;51.132;17.062;2023-12-28T11:32:40;6.97;;;5.43;;
18280;SDS011;9266;51.132;17.062;2023-12-28T11:35:08;9.80;;;5.50;;
18280;SDS011;9266;51.132;17.062;2023-12-28T11:37:38;9.23;;;5.43;;
18280;SDS011;9266;51.132;17.062;2023-12-28T11:40:10;8.77;;;5.83;;
18280;SDS011;9266;51.132;17.062;2023-12-28T11:42:47;9.17;;;5.27;;
18280;SDS011;9266;51.132;17.062;2023-12-28T11:45:17;7.70;;;5.10;;
18280;SDS011;9266;51.132;17.062;2023-12-28T11:47:44;12.53;;;6.77;;
18280;SDS011;9266;51.132;17.062;2023-12-28T11:50:11;8.57;;;5.50;;
18280;SDS011;9266;51.132;17.062;2023-12-28T11:52:39;9.90;;;5.40;;
18280;SDS011;9266;51.132;17.062;2023-12-28T11:55:06;10.23;;;5.80;;
18280;SDS011;9266;51.132;17.062;2023-12-28T11:57:33;10.47;;;6.73;;
18280;SDS011;9266;51.132;17.062;2023-12-28T12:00:02;14.07;;;7.50;;
18280;SDS011;9266;51.132;17.062;2023-12-28T12:02:33;8.80;;;5.77;;
18280;SDS011;9266;51.132;17.062;2023-12-28T12:05:00;8.97;;;6.07;;
18280;SDS011;9266;51.132;17.062;2023-12-28T12:07:28;12.67;;;7.27;;
18280;SDS011;9266;51.132;17.062;2023-12-28T12:09:56;10.33;;;6.37;;
18280;SDS011;9266;51.132;17.062;2023-12-28T12:12:23;7.93;;;5.97;;
18280;SDS011;9266;51.132;17.062;2023-12-28T12:14:50;8.53;;;5.83;;
18280;SDS011;9266;51.132;17.062;2023-12-28T12:17:17;9.03;;;6.50;;
18280;SDS011;9266;51.132;17.062;2023-12-28T12:19:46;10.63;;;6.73;;
18280;SDS011;9266;51.132;17.062;2023-12-28T12:22:16;10.37;;;6.40;;
18280;SDS011;9266;51.132;17.062;2023-12-28T12:24:44;8.00;;;6.07;;
18280;SDS011;9266;51.132;17.062;2023-12-28T12:27:13;10.30;;;6.03;;
18280;SDS011;9266;51.132;17.062;2023-12-28T12:29:40;8.30;;;5.50;;
18280;SDS011;9266;51.132;17.062;2023-12-28T12:32:07;9.43;;;6.30;;
18280;SDS011;9266;51.132;17.062;2023-12-28T12:34:35;8.20;;;6.07;;
18280;SDS011;9266;51.132;17.062;2023-12-28T12:37:03;10.53;;;6.17;;
18280;SDS011;9266;51.132;17.062;2023-12-28T12:39:30;7.57;;;5.87;;
18280;SDS011;9266;51.132;17.062;2023-12-28T12:41:58;9.67;;;5.97;;
18280;SDS011;9266;51.132;17.062;2023-12-28T12:44:25;9.20;;;6.53;;
18280;SDS011;9266;51.132;17.062;2023-12-28T12:46:58;9.03;;;6.03;;
18280;SDS011;9266;51.132;17.062;2023-12-28T12:49:25;10.03;;;6.57;;
18280;SDS011;9266;51.132;17.062;2023-12-28T12:51:52;10.27;;;6.40;;
18280;SDS011;9266;51.132;17.062;2023-12-28T12:54:20;11.10;;;6.67;;
18280;SDS011;9266;51.132;17.062;2023-12-28T12:56:47;8.57;;;5.83;;
18280;SDS011;9266;51.132;17.062;2023-12-28T12:59:16;7.27;;;6.20;;
18280;SDS011;9266;51.132;17.062;2023-12-28T13:01:43;8.10;;;5.43;;
18280;SDS011;9266;51.132;17.062;2023-12-28T13:04:13;7.63;;;5.43;;
18280;SDS011;9266;51.132;17.062;2023-12-28T13:06:41;6.97;;;5.60;;
18280;SDS011;9266;51.132;17.062;2023-12-28T13:09:08;6.57;;;5.70;;
18280;SDS011;9266;51.132;17.062;2023-12-28T13:11:37;8.70;;;6.00;;
18280;SDS011;9266;51.132;17.062;2023-12-28T13:14:04;10.63;;;6.70;;
18280;SDS011;9266;51.132;17.062;2023-12-28T13:16:31;8.30;;;5.70;;
18280;SDS011;9266;51.132;17.062;2023-12-28T13:18:58;11.27;;;6.10;;
18280;SDS011;9266;51.132;17.062;2023-12-28T13:21:25;8.70;;;6.70;;
18280;SDS011;9266;51.132;17.062;2023-12-28T13:23:52;18.87;;;7.77;;
18280;SDS011;9266;51.132;17.062;2023-12-28T13:26:19;9.00;;;7.00;;
18280;SDS011;9266;51.132;17.062;2023-12-28T13:28:47;13.27;;;7.70;;
18280;SDS011;9266;51.132;17.062;2023-12-28T13:31:14;15.50;;;7.03;;
18280;SDS011;9266;51.132;17.062;2023-12-28T13:33:43;11.00;;;7.40;;
18280;SDS011;9266;51.132;17.062;2023-12-28T13:36:10;10.33;;;7.10;;
18280;SDS011;9266;51.132;17.062;2023-12-28T13:38:37;9.80;;;6.93;;
18280;SDS011;9266;51.132;17.062;2023-12-28T13:41:04;12.73;;;7.20;;
18280;SDS011;9266;51.132;17.062;2023-12-28T13:43:31;14.47;;;9.13;;
18280;SDS011;9266;51.132;17.062;2023-12-28T13:46:00;12.63;;;8.63;;
18280;SDS011;9266;51.132;17.062;2023-12-28T13:48:29;11.73;;;8.20;;
18280;SDS011;9266;51.132;17.062;2023-12-28T13:50:56;11.50;;;7.23;;
18280;SDS011;9266;51.132;17.062;2023-12-28T13:53:23;12.47;;;7.83;;
18280;SDS011;9266;51.132;17.062;2023-12-28T13:55:49;11.90;;;7.10;;
18280;SDS011;9266;51.132;17.062;2023-12-28T13:58:16;9.90;;;6.50;;
18280;SDS011;9266;51.132;17.062;2023-12-28T14:00:43;8.47;;;6.50;;
18280;SDS011;9266;51.132;17.062;2023-12-28T14:03:12;11.00;;;7.40;;
18280;SDS011;9266;51.132;17.062;2023-12-28T14:05:39;14.20;;;7.80;;
18280;SDS011;9266;51.132;17.062;2023-12-28T14:08:07;12.63;;;7.77;;
18280;SDS011;9266;51.132;17.062;2023-12-28T14:10:34;12.80;;;8.37;;
18280;SDS011;9266;51.132;17.062;2023-12-28T14:13:03;15.07;;;9.47;;
18280;SDS011;9266;51.132;17.062;2023-12-28T14:15:31;13.07;;;9.60;;
18280;SDS011;9266;51.132;17.062;2023-12-28T14:17:58;16.87;;;9.63;;
18280;SDS011;9266;51.132;17.062;2023-12-28T14:20:26;15.23;;;9.50;;
18280;SDS011;9266;51.132;17.062;2023-12-28T14:22:53;12.13;;;8.17;;
18280;SDS011;9266;51.132;17.062;2023-12-28T14:25:21;19.23;;;10.87;;
18280;SDS011;9266;51.132;17.062;2023-12-28T14:27:47;16.13;;;8.80;;
18280;SDS011;9266;51.132;17.062;2023-12-28T14:30:15;17.67;;;10.33;;
18280;SDS011;9266;51.132;17.062;2023-12-28T14:32:43;13.97;;;8.97;;
18280;SDS011;9266;51.132;17.062;2023-12-28T14:35:11;14.03;;;8.93;;
18280;SDS011;9266;51.132;17.062;2023-12-28T14:37:42;13.40;;;8.83;;
18280;SDS011;9266;51.132;17.062;2023-12-28T14:40:09;12.60;;;8.33;;